Time;durP1;ratioP1;P1;durP2;ratioP2;P2;SDS_P1;SDS_P2;PMS_P1;PMS_P2;Temp;Humidity;BMP_temperature;BMP_pressure;BME280_temperature;BME280_humidity;BME280_pressure;Samples;Min_cycle;Max_cycle;Signal;HPM_P1;HPM_P2
2024/01/13 00:02:15;;;;;;;16.58;10.75;;;;;;;;;;4994436;28;20034;-72
2024/01/13 00:04:40;;;;;;;14.32;7.70;;;;;;;;;;4992740;28;20050;-72
2024/01/13 00:07:06;;;;;;;17.55;11.10;;;;;;;;;;4993662;28;20022;-73
2024/01/13 00:09:32;;;;;;;16.58;8.65;;;;;;;;;;4995328;28;20030;-72
2024/01/13 00:11:57;;;;;;;16.20;8.00;;;;;;;;;;4995332;28;20396;-72
2024/01/13 00:14:23;;;;;;;15.75;9.32;;;;;;;;;;4995547;28;20039;-72
2024/01/13 00:16:49;;;;;;;14.75;7.60;;;;;;;;;;4995346;28;20054;-71
2024/01/13 00:19:14;;;;;;;19.30;11.85;;;;;;;;;;4995112;28;20488;-72
2024/01/13 00:21:40;;;;;;;16.33;8.13;;;;;;;;;;4994720;28;20042;-73
2024/01/13 00:24:06;;;;;;;18.55;9.30;;;;;;;;;;4994426;28;20038;-73
2024/01/13 00:26:32;;;;;;;13.65;6.95;;;;;;;;;;4994948;28;20113;-73
2024/01/13 00:28:57;;;;;;;17.85;9.65;;;;;;;;;;4994846;28;20037;-71
2024/01/13 00:31:23;;;;;;;17.60;7.28;;;;;;;;;;4995021;28;20539;-72
2024/01/13 00:33:49;;;;;;;17.33;8.50;;;;;;;;;;4995176;28;20084;-72
2024/01/13 00:36:15;;;;;;;15.93;9.25;;;;;;;;;;4994893;28;20042;-73
2024/01/13 00:38:40;;;;;;;15.82;8.98;;;;;;;;;;4994791;28;20073;-73
2024/01/13 00:41:07;;;;;;;18.80;10.18;;;;;;;;;;4995188;28;20077;-71
2024/01/13 00:43:33;;;;;;;16.70;9.88;;;;;;;;;;4994569;28;20042;-72
2024/01/13 00:45:59;;;;;;;14.32;9.25;;;;;;;;;;4993047;28;20154;-73
2024/01/13 00:48:25;;;;;;;14.38;8.23;;;;;;;;;;4994551;28;20031;-74
2024/01/13 00:50:50;;;;;;;15.65;8.70;;;;;;;;;;4992912;28;20722;-74
2024/01/13 00:53:17;;;;;;;13.90;5.95;;;;;;;;;;4994344;28;20018;-73
2024/01/13 00:55:43;;;;;;;16.45;8.13;;;;;;;;;;4994634;28;20034;-73
2024/01/13 00:58:09;;;;;;;14.95;8.18;;;;;;;;;;4993826;28;20114;-73
2024/01/13 01:00:35;;;;;;;13.98;7.90;;;;;;;;;;4976764;28;20535;-72
2024/01/13 01:03:00;;;;;;;13.35;7.20;;;;;;;;;;4992964;28;20038;-72
2024/01/13 01:05:27;;;;;;;14.45;7.63;;;;;;;;;;4992722;28;20065;-73
2024/01/13 01:07:52;;;;;;;18.73;8.93;;;;;;;;;;4994234;28;20100;-73
2024/01/13 01:10:18;;;;;;;20.15;8.93;;;;;;;;;;4993930;28;20492;-73
2024/01/13 01:12:44;;;;;;;20.17;9.32;;;;;;;;;;4994248;28;20033;-73
2024/01/13 01:15:10;;;;;;;17.35;8.23;;;;;;;;;;4995254;28;20046;-74
2024/01/13 01:17:35;;;;;;;18.10;8.30;;;;;;;;;;4996038;28;20035;-73
2024/01/13 01:20:01;;;;;;;18.40;9.50;;;;;;;;;;4995671;28;20034;-72
2024/01/13 01:22:27;;;;;;;19.42;8.82;;;;;;;;;;4994713;28;20392;-74
2024/01/13 01:24:52;;;;;;;16.05;7.82;;;;;;;;;;4993263;28;20080;-74
2024/01/13 01:27:18;;;;;;;18.30;8.13;;;;;;;;;;4994618;28;20038;-73
2024/01/13 01:29:44;;;;;;;15.07;8.05;;;;;;;;;;4994470;28;20133;-72
2024/01/13 01:32:09;;;;;;;15.25;7.55;;;;;;;;;;4994191;28;20415;-73
2024/01/13 01:34:35;;;;;;;16.38;7.47;;;;;;;;;;4993875;28;20081;-73
2024/01/13 01:37:01;;;;;;;14.02;7.80;;;;;;;;;;4994015;28;20120;-74
2024/01/13 01:39:26;;;;;;;13.20;7.82;;;;;;;;;;4994280;28;20043;-72
2024/01/13 01:41:52;;;;;;;11.32;5.88;;;;;;;;;;4993742;28;20039;-73
2024/01/13 01:44:18;;;;;;;12.25;6.95;;;;;;;;;;4993535;28;20037;-73
2024/01/13 01:46:46;;;;;;;13.70;6.88;;;;;;;;;;4993657;28;20037;-72
2024/01/13 01:49:14;;;;;;;12.32;7.38;;;;;;;;;;4992118;28;20050;-72
2024/01/13 01:51:40;;;;;;;14.27;7.75;;;;;;;;;;4993990;28;20098;-73
2024/01/13 01:54:06;;;;;;;14.02;7.63;;;;;;;;;;4992388;28;20069;-73
2024/01/13 01:56:34;;;;;;;13.98;7.50;;;;;;;;;;4994352;28;20054;-73
2024/01/13 01:59:01;;;;;;;13.52;7.03;;;;;;;;;;4993849;28;20030;-72
2024/01/13 02:01:30;;;;;;;14.23;7.25;;;;;;;;;;4993442;28;20033;-74
2024/01/13 02:03:57;;;;;;;15.15;7.35;;;;;;;;;;4993371;28;20041;-73
2024/01/13 02:06:24;;;;;;;15.10;7.95;;;;;;;;;;4992527;28;20081;-72
2024/01/13 02:08:50;;;;;;;14.48;7.40;;;;;;;;;;4992037;28;20042;-73
2024/01/13 02:11:17;;;;;;;14.38;6.57;;;;;;;;;;4993036;28;20552;-73
2024/01/13 02:13:44;;;;;;;14.93;7.95;;;;;;;;;;4994634;28;20041;-73
2024/01/13 02:16:10;;;;;;;18.10;7.88;;;;;;;;;;4994112;28;20026;-71
2024/01/13 02:18:36;;;;;;;17.65;7.90;;;;;;;;;;4993509;28;20036;-73
2024/01/13 02:21:02;;;;;;;19.73;9.60;;;;;;;;;;4992898;28;20034;-73
2024/01/13 02:23:29;;;;;;;15.43;7.03;;;;;;;;;;4992940;28;20019;-74
2024/01/13 02:25:55;;;;;;;18.67;8.43;;;;;;;;;;4992532;28;20109;-72
2024/01/13 02:28:21;;;;;;;15.38;8.02;;;;;;;;;;4991859;28;20041;-72
2024/01/13 02:30:47;;;;;;;15.23;8.48;;;;;;;;;;4992445;28;20030;-73
2024/01/13 02:33:12;;;;;;;18.20;9.05;;;;;;;;;;4992679;28;20408;-72
2024/01/13 02:35:38;;;;;;;14.18;7.20;;;;;;;;;;4992381;28;20038;-72
2024/01/13 02:38:04;;;;;;;16.13;7.50;;;;;;;;;;4991696;28;20046;-72
2024/01/13 02:40:30;;;;;;;14.40;7.95;;;;;;;;;;4992362;28;20026;-73
2024/01/13 02:42:57;;;;;;;14.77;8.32;;;;;;;;;;4993760;28;20100;-72
2024/01/13 02:45:24;;;;;;;14.52;7.45;;;;;;;;;;4992416;28;20037;-73
2024/01/13 02:47:57;;;;;;;14.90;7.05;;;;;;;;;;4992625;28;20446;-72
2024/01/13 02:50:22;;;;;;;18.60;9.63;;;;;;;;;;4976525;28;20117;-73
2024/01/13 02:52:48;;;;;;;13.68;7.65;;;;;;;;;;4993229;28;20065;-72
2024/01/13 02:55:14;;;;;;;15.25;7.05;;;;;;;;;;4993141;28;20078;-74
2024/01/13 02:57:39;;;;;;;14.60;6.85;;;;;;;;;;4992970;28;20113;-74
2024/01/13 03:00:06;;;;;;;14.20;7.88;;;;;;;;;;4992878;28;20041;-73
2024/01/13 03:02:31;;;;;;;13.95;7.60;;;;;;;;;;4992130;28;20136;-73
2024/01/13 03:04:57;;;;;;;14.48;6.90;;;;;;;;;;4993069;28;20113;-72
2024/01/13 03:07:26;;;;;;;15.50;7.97;;;;;;;;;;4993723;28;20038;-71
2024/01/13 03:09:51;;;;;;;14.10;7.35;;;;;;;;;;4993904;28;20031;-72
2024/01/13 03:12:17;;;;;;;15.45;7.80;;;;;;;;;;4993538;28;20471;-72
2024/01/13 03:14:43;;;;;;;18.17;7.78;;;;;;;;;;4993719;28;20026;-73
2024/01/13 03:17:08;;;;;;;19.15;8.93;;;;;;;;;;4993676;28;20034;-73
2024/01/13 03:19:34;;;;;;;17.10;9.00;;;;;;;;;;4993587;28;20062;-73
2024/01/13 03:21:59;;;;;;;19.20;9.57;;;;;;;;;;4992452;28;20113;-73
2024/01/13 03:24:25;;;;;;;17.95;8.75;;;;;;;;;;4975704;28;20030;-73
2024/01/13 03:26:51;;;;;;;18.90;8.93;;;;;;;;;;4993183;28;20034;-73
2024/01/13 03:29:16;;;;;;;36.40;18.35;;;;;;;;;;4975379;28;20030;-72
2024/01/13 03:31:42;;;;;;;22.95;9.07;;;;;;;;;;4992523;28;20483;-72
2024/01/13 03:34:08;;;;;;;22.02;11.55;;;;;;;;;;4992452;28;20101;-73
2024/01/13 03:36:33;;;;;;;15.00;7.97;;;;;;;;;;4993436;28;20069;-73
2024/01/13 03:38:59;;;;;;;17.13;9.60;;;;;;;;;;4993848;28;20065;-73
2024/01/13 03:41:25;;;;;;;14.82;7.95;;;;;;;;;;4993079;28;20037;-73
2024/01/13 03:43:52;;;;;;;17.98;8.15;;;;;;;;;;4993038;28;20045;-73
2024/01/13 03:46:18;;;;;;;15.80;8.10;;;;;;;;;;4992480;28;20035;-73
2024/01/13 03:48:44;;;;;;;17.08;8.68;;;;;;;;;;4992385;28;20366;-73
2024/01/13 03:51:10;;;;;;;17.67;8.20;;;;;;;;;;4992184;28;20448;-73
2024/01/13 03:53:36;;;;;;;17.27;8.07;;;;;;;;;;4992445;28;20391;-73
2024/01/13 03:56:05;;;;;;;17.45;8.25;;;;;;;;;;4992547;28;20022;-72
2024/01/13 03:58:30;;;;;;;16.05;8.43;;;;;;;;;;4991940;28;20484;-71
2024/01/13 04:00:56;;;;;;;22.40;9.23;;;;;;;;;;4991645;28;20037;-73
2024/01/13 04:03:22;;;;;;;18.95;8.75;;;;;;;;;;4991535;28;20049;-73
2024/01/13 04:05:47;;;;;;;24.13;11.07;;;;;;;;;;4991629;28;20038;-73
2024/01/13 04:08:13;;;;;;;20.25;9.50;;;;;;;;;;4991881;28;20057;-74
2024/01/13 04:10:39;;;;;;;16.85;8.35;;;;;;;;;;5006840;28;20069;-72
2024/01/13 04:13:10;;;;;;;27.60;14.20;;;;;;;;;;4991622;28;20472;-72
2024/01/13 04:15:36;;;;;;;16.92;8.82;;;;;;;;;;4991449;28;20042;-75
2024/01/13 04:18:01;;;;;;;18.67;8.48;;;;;;;;;;4991879;28;20391;-72
2024/01/13 04:20:27;;;;;;;16.80;9.32;;;;;;;;;;4992031;28;20488;-72
2024/01/13 04:22:53;;;;;;;18.95;8.82;;;;;;;;;;4992020;28;20031;-73
2024/01/13 04:25:19;;;;;;;16.73;7.80;;;;;;;;;;4991135;28;20345;-73
2024/01/13 04:27:45;;;;;;;19.45;8.95;;;;;;;;;;4991432;28;20411;-73
2024/01/13 04:30:11;;;;;;;16.13;8.85;;;;;;;;;;4991756;28;20038;-72
2024/01/13 04:32:38;;;;;;;18.35;9.60;;;;;;;;;;4991944;28;20440;-72
2024/01/13 04:35:04;;;;;;;17.83;9.98;;;;;;;;;;4995116;28;20073;-73
2024/01/13 04:37:30;;;;;;;18.05;9.07;;;;;;;;;;4995238;28;20034;-73
2024/01/13 04:39:55;;;;;;;22.27;12.85;;;;;;;;;;4995776;28;20022;-73
2024/01/13 04:42:21;;;;;;;21.15;11.02;;;;;;;;;;4995053;28;20137;-73
2024/01/13 04:44:47;;;;;;;21.90;11.68;;;;;;;;;;4994762;28;20049;-73
2024/01/13 04:47:13;;;;;;;26.52;11.68;;;;;;;;;;4994897;28;20022;-73
2024/01/13 04:49:38;;;;;;;20.92;10.43;;;;;;;;;;4994927;28;20141;-72
2024/01/13 04:52:04;;;;;;;23.17;11.38;;;;;;;;;;4995238;28;20130;-73
2024/01/13 04:54:30;;;;;;;29.13;10.55;;;;;;;;;;4994810;28;20023;-73
2024/01/13 04:56:55;;;;;;;21.60;10.88;;;;;;;;;;4977354;28;20057;-73
2024/01/13 04:59:21;;;;;;;24.27;10.88;;;;;;;;;;4994944;28;20118;-73
2024/01/13 05:01:47;;;;;;;24.27;10.90;;;;;;;;;;4995171;28;20072;-72
2024/01/13 05:04:12;;;;;;;23.08;10.93;;;;;;;;;;4994890;28;20381;-72
2024/01/13 05:06:38;;;;;;;26.73;11.55;;;;;;;;;;4994993;28;20069;-73
2024/01/13 05:09:04;;;;;;;28.52;13.70;;;;;;;;;;4995238;28;20076;-73
2024/01/13 05:11:30;;;;;;;25.55;11.13;;;;;;;;;;4995028;28;20054;-73
2024/01/13 05:13:56;;;;;;;25.88;12.15;;;;;;;;;;4994951;28;20045;-72
2024/01/13 05:16:21;;;;;;;22.15;11.75;;;;;;;;;;4995473;28;20423;-73
2024/01/13 05:18:47;;;;;;;24.02;11.88;;;;;;;;;;4994852;28;20073;-73
2024/01/13 05:21:13;;;;;;;25.13;12.10;;;;;;;;;;4994656;28;20038;-73
2024/01/13 05:23:39;;;;;;;27.27;10.82;;;;;;;;;;4994559;28;20037;-72
2024/01/13 05:26:04;;;;;;;24.48;11.95;;;;;;;;;;4994402;28;20026;-73
2024/01/13 05:28:30;;;;;;;21.05;9.32;;;;;;;;;;4994473;28;20045;-72
2024/01/13 05:30:56;;;;;;;22.35;11.10;;;;;;;;;;4994768;28;20109;-72
2024/01/13 05:33:21;;;;;;;21.15;11.40;;;;;;;;;;4994183;28;20089;-73
2024/01/13 05:35:47;;;;;;;26.48;10.50;;;;;;;;;;4994133;28;20042;-73
2024/01/13 05:38:13;;;;;;;24.90;11.30;;;;;;;;;;4976859;28;20046;-72
2024/01/13 05:40:44;;;;;;;26.67;11.43;;;;;;;;;;4994442;28;20031;-72
2024/01/13 05:43:10;;;;;;;27.15;13.98;;;;;;;;;;4977131;28;20034;-73
2024/01/13 05:45:35;;;;;;;31.00;14.18;;;;;;;;;;4994128;28;20105;-73
2024/01/13 05:48:01;;;;;;;22.75;10.50;;;;;;;;;;4976999;28;20480;-73
2024/01/13 05:50:27;;;;;;;29.45;10.57;;;;;;;;;;4994031;28;20031;-74
2024/01/13 05:52:53;;;;;;;23.48;11.75;;;;;;;;;;4994097;28;20543;-74
2024/01/13 05:55:19;;;;;;;24.77;10.80;;;;;;;;;;4994303;28;20050;-73
2024/01/13 05:57:44;;;;;;;31.08;12.70;;;;;;;;;;4976384;28;20034;-72
2024/01/13 06:00:10;;;;;;;23.85;11.15;;;;;;;;;;4994152;28;20069;-72
2024/01/13 06:02:36;;;;;;;31.42;13.85;;;;;;;;;;4994698;28;20030;-73
2024/01/13 06:05:02;;;;;;;25.52;11.65;;;;;;;;;;5009367;28;20046;-72
2024/01/13 06:07:28;;;;;;;21.75;10.20;;;;;;;;;;4993763;28;20034;-71
2024/01/13 06:09:53;;;;;;;37.95;12.18;;;;;;;;;;4993855;28;20157;-72
2024/01/13 06:12:20;;;;;;;25.52;12.73;;;;;;;;;;4993572;28;20522;-72
2024/01/13 06:14:47;;;;;;;23.00;10.07;;;;;;;;;;4993602;28;20038;-72
2024/01/13 06:17:12;;;;;;;23.02;10.20;;;;;;;;;;4976246;28;20038;-72
2024/01/13 06:19:38;;;;;;;32.85;13.00;;;;;;;;;;4993423;28;20041;-72
2024/01/13 06:22:04;;;;;;;31.75;12.93;;;;;;;;;;4993426;28;20041;-72
2024/01/13 06:24:30;;;;;;;22.25;10.30;;;;;;;;;;4993412;28;20030;-71
2024/01/13 06:26:55;;;;;;;26.77;12.88;;;;;;;;;;4993323;28;20038;-72
2024/01/13 06:29:22;;;;;;;26.75;13.65;;;;;;;;;;4993519;28;20504;-73
2024/01/13 06:31:47;;;;;;;23.05;11.23;;;;;;;;;;4993282;28;20097;-72
2024/01/13 06:34:14;;;;;;;30.08;13.88;;;;;;;;;;4993184;28;20034;-72
2024/01/13 06:36:40;;;;;;;28.33;13.02;;;;;;;;;;4975831;28;20457;-72
2024/01/13 06:39:06;;;;;;;27.08;11.52;;;;;;;;;;4992154;28;20101;-72
2024/01/13 06:41:32;;;;;;;25.23;12.15;;;;;;;;;;4975589;28;20053;-73
2024/01/13 06:43:57;;;;;;;23.23;10.52;;;;;;;;;;4993230;28;20089;-73
2024/01/13 06:46:23;;;;;;;26.67;10.75;;;;;;;;;;4992587;28;20097;-73
2024/01/13 06:48:49;;;;;;;26.63;11.57;;;;;;;;;;4992691;28;20102;-72
2024/01/13 06:51:15;;;;;;;25.98;12.52;;;;;;;;;;4991918;28;20037;-74
2024/01/13 06:53:40;;;;;;;34.30;12.75;;;;;;;;;;4958156;28;20038;-76
2024/01/13 06:56:07;;;;;;;28.33;12.98;;;;;;;;;;4991189;28;20031;-75
2024/01/13 06:58:33;;;;;;;23.73;11.43;;;;;;;;;;4974362;28;20515;-75
2024/01/13 07:01:00;;;;;;;26.02;12.75;;;;;;;;;;4991336;28;20030;-75
2024/01/13 07:03:26;;;;;;;30.15;14.18;;;;;;;;;;4991637;28;20388;-76
2024/01/13 07:05:52;;;;;;;34.15;15.18;;;;;;;;;;4991779;28;20046;-76
2024/01/13 07:08:18;;;;;;;33.33;14.10;;;;;;;;;;4974063;28;20042;-76
2024/01/13 07:10:46;;;;;;;33.03;13.57;;;;;;;;;;4990789;28;20034;-76
2024/01/13 07:13:11;;;;;;;31.77;14.23;;;;;;;;;;4985290;28;20042;-75
2024/01/13 07:15:37;;;;;;;28.13;13.93;;;;;;;;;;4991640;28;20490;-77
2024/01/13 07:18:03;;;;;;;33.92;13.48;;;;;;;;;;4974099;28;20117;-75
2024/01/13 07:20:29;;;;;;;27.77;13.95;;;;;;;;;;4991209;28;20038;-76
2024/01/13 07:22:54;;;;;;;23.65;12.73;;;;;;;;;;4991601;28;20400;-74
2024/01/13 07:25:20;;;;;;;33.10;14.10;;;;;;;;;;4991674;28;20046;-76
2024/01/13 07:27:46;;;;;;;27.33;13.00;;;;;;;;;;4974436;28;20464;-75
2024/01/13 07:30:12;;;;;;;28.83;14.00;;;;;;;;;;4989961;28;20057;-75
2024/01/13 07:32:38;;;;;;;23.83;12.15;;;;;;;;;;4989624;28;20038;-75
2024/01/13 07:35:04;;;;;;;24.17;12.32;;;;;;;;;;4990588;28;20487;-74
2024/01/13 07:37:30;;;;;;;25.00;12.75;;;;;;;;;;4973593;28;20034;-75
2024/01/13 07:39:55;;;;;;;26.58;12.48;;;;;;;;;;4990833;28;20045;-76
2024/01/13 07:42:21;;;;;;;27.00;13.30;;;;;;;;;;4957192;28;20094;-76
2024/01/13 07:44:47;;;;;;;28.33;12.38;;;;;;;;;;4991371;28;20038;-74
2024/01/13 07:47:13;;;;;;;27.02;12.73;;;;;;;;;;4991030;28;20498;-75
2024/01/13 07:49:39;;;;;;;25.30;11.10;;;;;;;;;;4972638;28;20109;-76
2024/01/13 07:52:06;;;;;;;25.75;11.82;;;;;;;;;;4990773;28;20047;-75
2024/01/13 07:54:33;;;;;;;25.52;11.10;;;;;;;;;;4990602;28;20080;-76
2024/01/13 07:56:58;;;;;;;23.65;11.77;;;;;;;;;;4990844;28;20038;-75
2024/01/13 07:59:25;;;;;;;26.23;13.07;;;;;;;;;;4991596;28;20541;-74
2024/01/13 08:01:51;;;;;;;26.00;11.27;;;;;;;;;;4991279;28;20046;-73
2024/01/13 08:04:16;;;;;;;21.98;11.48;;;;;;;;;;4989859;28;20042;-75
2024/01/13 08:06:43;;;;;;;21.27;10.45;;;;;;;;;;5005645;28;20027;-77
2024/01/13 08:09:08;;;;;;;31.75;11.65;;;;;;;;;;4976892;28;20604;-73
2024/01/13 08:11:34;;;;;;;22.35;11.88;;;;;;;;;;4992649;28;20235;-76
2024/01/13 08:14:00;;;;;;;22.83;11.13;;;;;;;;;;4994293;28;20053;-75
2024/01/13 08:16:27;;;;;;;21.42;10.77;;;;;;;;;;4993073;28;20113;-76
2024/01/13 08:18:53;;;;;;;20.70;9.98;;;;;;;;;;4975033;28;20037;-74
2024/01/13 08:21:19;;;;;;;21.90;11.52;;;;;;;;;;4993729;28;20038;-76
2024/01/13 08:23:44;;;;;;;30.17;12.13;;;;;;;;;;4993059;28;20058;-76
2024/01/13 08:26:10;;;;;;;20.90;10.85;;;;;;;;;;4994205;28;20077;-77
2024/01/13 08:28:37;;;;;;;28.70;10.70;;;;;;;;;;4993797;28;20030;-77
2024/01/13 08:31:03;;;;;;;27.45;11.77;;;;;;;;;;4994337;28;20027;-76
2024/01/13 08:33:29;;;;;;;24.83;11.32;;;;;;;;;;4993637;28;20090;-75
2024/01/13 08:35:54;;;;;;;27.00;11.55;;;;;;;;;;4993677;28;20034;-76
2024/01/13 08:38:20;;;;;;;27.45;13.05;;;;;;;;;;4960244;28;20160;-75
2024/01/13 08:40:46;;;;;;;36.05;12.50;;;;;;;;;;4993958;28;20045;-76
2024/01/13 08:43:12;;;;;;;27.88;11.68;;;;;;;;;;4975763;28;20505;-77
2024/01/13 08:45:38;;;;;;;25.02;12.25;;;;;;;;;;4993679;28;20045;-77
2024/01/13 08:48:06;;;;;;;33.60;12.20;;;;;;;;;;4993746;28;20046;-77
2024/01/13 08:50:34;;;;;;;25.38;11.45;;;;;;;;;;4993806;28;20094;-76
2024/01/13 08:53:01;;;;;;;23.48;11.93;;;;;;;;;;4993915;28;20089;-76
2024/01/13 08:55:27;;;;;;;27.48;12.60;;;;;;;;;;4991693;28;20105;-73
2024/01/13 08:57:53;;;;;;;27.83;11.85;;;;;;;;;;4970990;28;20117;-73
2024/01/13 09:00:19;;;;;;;27.40;13.30;;;;;;;;;;4976042;28;20034;-74
2024/01/13 09:02:47;;;;;;;22.23;11.20;;;;;;;;;;4993349;28;20456;-73
2024/01/13 09:05:14;;;;;;;23.85;11.55;;;;;;;;;;4975779;28;20035;-75
2024/01/13 09:07:40;;;;;;;26.67;12.02;;;;;;;;;;4993125;28;20029;-74
2024/01/13 09:10:07;;;;;;;22.77;9.82;;;;;;;;;;4993257;28;20042;-77
2024/01/13 09:12:33;;;;;;;24.90;11.90;;;;;;;;;;4992434;28;20171;-77
2024/01/13 09:14:58;;;;;;;32.50;14.60;;;;;;;;;;4993092;28;20109;-75
2024/01/13 09:17:24;;;;;;;21.73;11.82;;;;;;;;;;4993495;28;20279;-75
2024/01/13 09:19:52;;;;;;;23.08;13.15;;;;;;;;;;4990422;28;20070;-73
2024/01/13 09:22:19;;;;;;;21.90;10.80;;;;;;;;;;4974101;28;20034;-75
2024/01/13 09:24:44;;;;;;;29.70;13.18;;;;;;;;;;4973213;28;20080;-76
2024/01/13 09:27:10;;;;;;;24.75;12.65;;;;;;;;;;4991425;28;20074;-75
2024/01/13 09:29:37;;;;;;;27.67;13.15;;;;;;;;;;4973780;28;20121;-76
2024/01/13 09:32:04;;;;;;;26.70;10.77;;;;;;;;;;4973582;28;20050;-76
2024/01/13 09:34:30;;;;;;;20.70;10.05;;;;;;;;;;4991668;28;20133;-75
2024/01/13 09:36:56;;;;;;;21.88;11.95;;;;;;;;;;4975384;28;20515;-76
2024/01/13 09:39:22;;;;;;;24.02;11.27;;;;;;;;;;4993327;28;20022;-78
2024/01/13 09:41:48;;;;;;;24.90;11.90;;;;;;;;;;4975621;28;20421;-77
2024/01/13 09:44:25;;;;;;;24.17;10.27;;;;;;;;;;4976471;28;20046;-78
2024/01/13 09:46:53;;;;;;;21.27;10.48;;;;;;;;;;4993778;28;20042;-78
2024/01/13 09:49:20;;;;;;;23.10;11.18;;;;;;;;;;4993013;28;20085;-79
2024/01/13 09:51:48;;;;;;;20.95;10.90;;;;;;;;;;4975618;28;20464;-77
2024/01/13 09:54:30;;;;;;;21.70;10.75;;;;;;;;;;4993262;28;20042;-77
2024/01/13 09:56:57;;;;;;;20.05;10.07;;;;;;;;;;4992893;28;20130;-78
2024/01/13 09:59:25;;;;;;;24.63;9.95;;;;;;;;;;4993333;28;20070;-78
2024/01/13 10:01:52;;;;;;;20.00;10.23;;;;;;;;;;4992761;28;20034;-78
2024/01/13 10:04:18;;;;;;;23.67;11.38;;;;;;;;;;4975293;28;20404;-77
2024/01/13 10:06:47;;;;;;;24.38;11.35;;;;;;;;;;4991942;28;20026;-77
2024/01/13 10:09:13;;;;;;;21.55;11.32;;;;;;;;;;4992826;28;20041;-79
2024/01/13 10:11:38;;;;;;;31.58;16.13;;;;;;;;;;4992436;28;20030;-77
2024/01/13 10:14:06;;;;;;;21.85;11.00;;;;;;;;;;4992159;28;20081;-76
2024/01/13 10:16:33;;;;;;;21.27;9.73;;;;;;;;;;4975164;28;20038;-78
2024/01/13 10:19:04;;;;;;;21.35;10.40;;;;;;;;;;4992478;28;20049;-80
2024/01/13 10:21:31;;;;;;;25.60;12.05;;;;;;;;;;4974753;28;20043;-78
2024/01/13 10:24:00;;;;;;;26.15;12.20;;;;;;;;;;4980253;28;20034;-78
2024/01/13 10:26:30;;;;;;;19.33;9.38;;;;;;;;;;4991075;28;20441;-79
2024/01/13 10:28:57;;;;;;;25.33;12.40;;;;;;;;;;4993066;28;20030;-78
2024/01/13 10:31:24;;;;;;;24.95;12.82;;;;;;;;;;4992023;28;20496;-78
2024/01/13 10:33:50;;;;;;;23.15;12.60;;;;;;;;;;4992820;28;20092;-75
2024/01/13 10:36:21;;;;;;;20.77;11.63;;;;;;;;;;4991476;28;20018;-76
2024/01/13 10:38:49;;;;;;;24.08;11.13;;;;;;;;;;4975462;28;20037;-77
2024/01/13 10:41:16;;;;;;;30.38;13.65;;;;;;;;;;5007761;28;20052;-78
2024/01/13 10:43:44;;;;;;;29.92;14.15;;;;;;;;;;4992878;28;20103;-75
2024/01/13 10:46:18;;;;;;;26.52;13.43;;;;;;;;;;4975387;28;20096;-75
2024/01/13 10:48:46;;;;;;;28.83;13.07;;;;;;;;;;4992592;28;20085;-77
2024/01/13 10:51:27;;;;;;;25.70;11.85;;;;;;;;;;4992429;28;20046;-76
2024/01/13 10:53:54;;;;;;;35.90;15.10;;;;;;;;;;4975209;28;20444;-76
2024/01/13 10:56:20;;;;;;;32.67;12.40;;;;;;;;;;4975682;28;20022;-77
2024/01/13 10:58:49;;;;;;;35.47;14.30;;;;;;;;;;5007079;28;20395;-75
2024/01/13 11:01:15;;;;;;;23.33;11.40;;;;;;;;;;4992137;28;20113;-75
2024/01/13 11:03:42;;;;;;;24.67;11.73;;;;;;;;;;4958378;28;20026;-77
2024/01/13 11:06:08;;;;;;;23.15;11.57;;;;;;;;;;4992224;28;20522;-75
2024/01/13 11:08:34;;;;;;;22.80;11.15;;;;;;;;;;4991867;28;20046;-77
2024/01/13 11:11:01;;;;;;;25.02;13.00;;;;;;;;;;4975044;28;20062;-78
2024/01/13 11:13:31;;;;;;;25.55;12.43;;;;;;;;;;4992256;28;20050;-78
2024/01/13 11:16:08;;;;;;;25.25;10.75;;;;;;;;;;4992141;28;20038;-77
2024/01/13 11:18:44;;;;;;;17.95;9.50;;;;;;;;;;5006725;28;20034;-76
2024/01/13 11:21:11;;;;;;;22.08;8.77;;;;;;;;;;4991825;28;20479;-76
2024/01/13 11:23:53;;;;;;;22.73;10.82;;;;;;;;;;4991193;28;20042;-76
2024/01/13 11:26:27;;;;;;;19.83;10.38;;;;;;;;;;4992677;28;20114;-78
2024/01/13 11:28:54;;;;;;;25.23;9.98;;;;;;;;;;4974422;28;20042;-77
2024/01/13 11:31:59;;;;;;;28.02;11.18;;;;;;;;;;4992103;28;20034;-77
2024/01/13 11:34:29;;;;;;;21.45;11.43;;;;;;;;;;4964349;28;20553;-76
2024/01/13 11:36:59;;;;;;;18.23;9.07;;;;;;;;;;4991752;28;20137;-77
2024/01/13 11:39:26;;;;;;;18.90;8.82;;;;;;;;;;4992155;28;20025;-78
2024/01/13 11:41:56;;;;;;;22.40;9.98;;;;;;;;;;4992524;28;20403;-79
2024/01/13 11:44:43;;;;;;;17.60;9.50;;;;;;;;;;4994541;28;20034;-78
2024/01/13 11:47:12;;;;;;;18.20;9.18;;;;;;;;;;4978665;28;20034;-74
2024/01/13 11:49:43;;;;;;;27.80;11.30;;;;;;;;;;4978541;28;20041;-78
2024/01/13 11:52:09;;;;;;;14.45;7.65;;;;;;;;;;4995062;28;20032;-77
2024/01/13 11:54:37;;;;;;;25.15;10.20;;;;;;;;;;4995798;28;20078;-75
2024/01/13 11:57:07;;;;;;;24.48;9.88;;;;;;;;;;5011030;28;20208;-77
2024/01/13 11:59:33;;;;;;;17.23;9.93;;;;;;;;;;4979418;28;20034;-77
2024/01/13 12:01:59;;;;;;;18.00;9.55;;;;;;;;;;4978758;28;20125;-76
2024/01/13 12:04:27;;;;;;;18.50;8.68;;;;;;;;;;4995609;28;20026;-78
2024/01/13 12:06:55;;;;;;;17.60;8.82;;;;;;;;;;4978312;28;20097;-78
2024/01/13 12:09:23;;;;;;;20.27;10.23;;;;;;;;;;4995949;28;20151;-76
2024/01/13 12:11:55;;;;;;;18.02;9.52;;;;;;;;;;5010961;28;20494;-77
2024/01/13 12:14:28;;;;;;;25.35;12.75;;;;;;;;;;4978291;28;20456;-76
2024/01/13 12:16:57;;;;;;;33.85;15.23;;;;;;;;;;4978243;28;20104;-77
2024/01/13 12:19:26;;;;;;;19.05;10.60;;;;;;;;;;4995766;28;20037;-77
2024/01/13 12:21:51;;;;;;;17.10;9.00;;;;;;;;;;4995656;28;20061;-77
2024/01/13 12:24:26;;;;;;;23.63;11.73;;;;;;;;;;4995876;28;20101;-76
2024/01/13 12:26:53;;;;;;;17.38;9.15;;;;;;;;;;4979190;28;20046;-78
2024/01/13 12:29:21;;;;;;;26.35;10.20;;;;;;;;;;4961731;28;20041;-76
2024/01/13 12:31:48;;;;;;;33.15;12.48;;;;;;;;;;4995145;28;20045;-74
2024/01/13 12:34:14;;;;;;;25.95;10.57;;;;;;;;;;4995496;28;20118;-74
2024/01/13 12:36:41;;;;;;;21.27;9.70;;;;;;;;;;4995203;28;20022;-74
2024/01/13 12:39:07;;;;;;;18.85;8.38;;;;;;;;;;4977651;28;20042;-74
2024/01/13 12:41:33;;;;;;;20.05;10.50;;;;;;;;;;4977435;28;20092;-75
2024/01/13 12:44:00;;;;;;;18.38;9.52;;;;;;;;;;4995485;28;20034;-75
2024/01/13 12:46:27;;;;;;;23.13;9.48;;;;;;;;;;4994919;28;20510;-75
2024/01/13 12:48:54;;;;;;;20.42;10.52;;;;;;;;;;4994761;28;20434;-74
2024/01/13 12:51:20;;;;;;;17.85;9.13;;;;;;;;;;4994788;28;20034;-75
2024/01/13 12:53:46;;;;;;;18.33;9.70;;;;;;;;;;4993035;28;20052;-75
2024/01/13 12:56:17;;;;;;;22.02;9.65;;;;;;;;;;4977307;28;20046;-75
2024/01/13 12:58:43;;;;;;;23.13;10.55;;;;;;;;;;4977912;28;20480;-75
2024/01/13 13:01:10;;;;;;;24.65;10.98;;;;;;;;;;4994748;28;20029;-75
2024/01/13 13:03:36;;;;;;;18.35;9.48;;;;;;;;;;4976351;28;20045;-74
2024/01/13 13:06:02;;;;;;;18.60;9.10;;;;;;;;;;4994547;28;20022;-75
2024/01/13 13:08:28;;;;;;;22.92;10.13;;;;;;;;;;4994585;28;20498;-75
2024/01/13 13:10:54;;;;;;;17.77;8.65;;;;;;;;;;4994396;28;20026;-76
2024/01/13 13:13:21;;;;;;;24.02;9.40;;;;;;;;;;4994284;28;20035;-75
2024/01/13 13:15:47;;;;;;;19.80;8.75;;;;;;;;;;4994407;28;20038;-75
2024/01/13 13:18:12;;;;;;;19.02;9.93;;;;;;;;;;4977514;28;20038;-75
2024/01/13 13:20:38;;;;;;;20.55;10.07;;;;;;;;;;4994616;28;20569;-75
2024/01/13 13:23:06;;;;;;;25.00;11.55;;;;;;;;;;4994582;28;20030;-76
2024/01/13 13:25:35;;;;;;;25.48;12.88;;;;;;;;;;4995187;28;20522;-76
2024/01/13 13:28:05;;;;;;;28.40;11.30;;;;;;;;;;4994144;28;20038;-74
2024/01/13 13:30:32;;;;;;;20.38;9.88;;;;;;;;;;4994323;28;20037;-75
2024/01/13 13:32:58;;;;;;;28.63;11.23;;;;;;;;;;4977003;28;20034;-76
2024/01/13 13:35:24;;;;;;;17.25;9.77;;;;;;;;;;4976501;28;20506;-75
2024/01/13 13:37:50;;;;;;;19.48;9.07;;;;;;;;;;4994590;28;20026;-76
2024/01/13 13:40:18;;;;;;;18.95;9.65;;;;;;;;;;4994457;28;20038;-76
2024/01/13 13:42:46;;;;;;;26.35;11.63;;;;;;;;;;4994454;28;20484;-75
2024/01/13 13:45:13;;;;;;;27.52;13.77;;;;;;;;;;4994747;28;20086;-76
2024/01/13 13:47:39;;;;;;;24.42;11.40;;;;;;;;;;4961485;28;20030;-75
2024/01/13 13:50:06;;;;;;;18.55;10.13;;;;;;;;;;4994191;28;20053;-75
2024/01/13 13:52:31;;;;;;;21.20;10.10;;;;;;;;;;4993949;28;20026;-75
2024/01/13 13:54:57;;;;;;;21.33;10.27;;;;;;;;;;4992742;28;20042;-75
2024/01/13 13:57:23;;;;;;;18.58;9.50;;;;;;;;;;4993482;28;20031;-75
2024/01/13 13:59:48;;;;;;;17.92;9.07;;;;;;;;;;4993469;28;20022;-75
2024/01/13 14:02:15;;;;;;;17.92;8.85;;;;;;;;;;4976141;28;20145;-75
2024/01/13 14:04:40;;;;;;;18.70;7.75;;;;;;;;;;4993398;28;20535;-75
2024/01/13 14:07:06;;;;;;;18.50;9.13;;;;;;;;;;5008389;28;20026;-75
2024/01/13 14:09:32;;;;;;;18.65;10.23;;;;;;;;;;4993142;28;20058;-74
2024/01/13 14:11:58;;;;;;;27.10;11.00;;;;;;;;;;4993673;28;20041;-75
2024/01/13 14:14:24;;;;;;;19.40;10.23;;;;;;;;;;4975554;28;20022;-74
2024/01/13 14:16:51;;;;;;;21.85;11.18;;;;;;;;;;4993124;28;20090;-76
2024/01/13 14:19:17;;;;;;;21.88;12.02;;;;;;;;;;4960036;28;20030;-76
2024/01/13 14:21:43;;;;;;;22.35;10.52;;;;;;;;;;4975646;28;20041;-77